Terminal Aerodrome Forecast
Issued by NWS

Home | Current Version | Previous Version | Text Only | Print | Product List | Glossary On
Versions: 1 2 3 4 5 6 7 8 9 10 11 12 13 14
673
FTUS46 KMTR 291720
TAFSJC
TAF
KSJC 291720Z 2918/3018 VRB04KT P6SM FEW200
     FM291900 31013KT P6SM SCT150
     FM300300 30010KT P6SM SCT150
     FM300900 30006KT 6SM -DZ BR BKN008 OVC015
     FM301600 30005KT P6SM SCT015 SCT150=

USA.gov is the U.S. government's official web portal to all federal, state and local government web resources and services.